MyWebLog Booking Liste

 

Nyhetsmelding

Kopirett © 2014 Værnes Flyklubb. Alle rettigheter reservert.
Joomla! er fri programvare utgitt under GNU/GPL License.
 

METAR

ENVA 222320Z 15019KT CAVOK 06/M02 Q1010 RMK WIND 670FT 17033G44KT

ENVA 2300/2324 14015KT 9999 SCT040 BKN060 TEMPO 2300/2324 16022G35KT